Aeroporto :
LOGIN :

Iscrizione | Disclaimer

   EN    FR    IT 

 










Sommario :    VFR   VFR Marginale   IFR   IFR Intensivo   IFR Molto Intensivo
Visibilità : 
Base nubi : 
>= 8 km
>= 3000ft
5 / 8 km
1000 / 3000 ft
1500m / 5 km
500 / 1000 ft
800 / 1500m
200 / 500 ft
< 800m
< 200 ft
Simboli :   Temporali  Nebbia  Neve Forte  Precipitazioni Forti  Vento > 20 kt
SIGMETs :   Varie  Temporali  Ghiacco  Turbolenza  Onda orograficha  Ceneri Vulcaniche






- Altitudine del aeroporto : 517 ft
- Codice IATA : GML


UKKM - Antonov

ULTIMO METAR :
  • 070200Z AUTO 18004MPS 6000 // NCD M03/M04 Q1013

METARs OBSOLETI :
  • 070130Z AUTO 20003MPS 5000 // NCD M03/M04 Q1013
  • 070100Z AUTO 21003MPS 6000 // NCD M03/M04 Q1013
  • 070030Z AUTO 20003MPS 6000 // NCD M03/M04 Q1014
  • 070000Z AUTO 20004MPS 6000 // NCD M03/M04 Q1014
  • 062330Z AUTO 21004MPS 6000 // NCD M03/M04 Q1014
  • 062300Z AUTO 21004MPS 7000 // NCD M02/M04 Q1014

TAF TAF UKKM
Valido dal 06 a 12 ore il 07 a 12 ore UTC


061101Z 0612/0712 21005MPS CAVOK TX06/0612Z TNM02/0705Z



MetMap, La meteo Aeronautica in un colpo d'occhio ! - Copyright ORBIFLY Dicembre 2007 - Disclaimer

ORBIFLY MET'MAP TEAM :

Programmazione e sviluppo : Alexandra Zaïnal
Concezione : Baudouin d'Aumeries
Aiuto per la programmazione : Marc-Olivier Méhu
Supporto tecnico e logistico : Manuel Goepfert
Aiuto per la traduzione : Arnaldo La Scala

Contatto : metmap@orbifly.com




FONTI E CREDITI :

   NOAA